Time;durP1;ratioP1;P1;durP2;ratioP2;P2;SDS_P1;SDS_P2;PMS_P1;PMS_P2;Temp;Humidity;BMP_temperature;BMP_pressure;BME280_temperature;BME280_humidity;BME280_pressure;Samples;Min_cycle;Max_cycle;Signal;HPM_P1;HPM_P2
2022/09/30 00:00:16;;;;;;;30.37;11.10;;;;;;;14.04;100.00;99623.75;1506949;86;21436;-80
2022/09/30 00:02:43;;;;;;;15.40;10.23;;;;;;;14.02;100.00;99614.30;1507520;84;21392;-81
2022/09/30 00:05:09;;;;;;;15.93;9.47;;;;;;;13.97;100.00;99621.52;1500606;84;22554;-80
2022/09/30 00:07:35;;;;;;;21.30;10.27;;;;;;;13.93;100.00;99604.30;1513819;85;21348;-81
2022/09/30 00:10:01;;;;;;;26.90;11.70;;;;;;;13.90;100.00;99615.31;1509974;86;22316;-80
2022/09/30 00:12:27;;;;;;;39.17;12.67;;;;;;;13.86;100.00;99612.70;1507208;86;21408;-81
2022/09/30 00:14:53;;;;;;;26.27;10.80;;;;;;;13.82;100.00;99613.59;1509648;85;21348;-82
2022/09/30 00:17:19;;;;;;;25.73;10.57;;;;;;;13.77;100.00;99618.13;1490002;86;21415;-81
2022/09/30 00:19:46;;;;;;;16.97;9.40;;;;;;;13.75;100.00;99616.66;1512590;84;21303;-81
2022/09/30 00:22:13;;;;;;;18.33;9.63;;;;;;;13.75;100.00;99619.33;1527794;84;22430;-81
2022/09/30 00:24:39;;;;;;;15.83;9.83;;;;;;;13.73;100.00;99616.05;1515155;84;21488;-81
2022/09/30 00:27:05;;;;;;;16.10;9.80;;;;;;;13.70;100.00;99616.43;1507209;86;21355;-80
2022/09/30 00:29:31;;;;;;;21.07;9.27;;;;;;;13.63;100.00;99618.17;1523237;84;21439;-80
2022/09/30 00:31:57;;;;;;;24.00;9.17;;;;;;;13.62;100.00;99621.34;1512481;86;21614;-80
2022/09/30 00:34:23;;;;;;;30.03;9.40;;;;;;;13.61;100.00;99618.86;1507260;85;21462;-81
2022/09/30 00:36:54;;;;;;;12.23;9.40;;;;;;;13.60;100.00;99615.89;1513722;86;21381;-80
2022/09/30 00:39:25;;;;;;;20.07;9.23;;;;;;;13.62;100.00;99620.52;1490932;86;22249;-80
2022/09/30 00:41:55;;;;;;;23.70;9.53;;;;;;;13.63;100.00;99622.98;1504848;86;21470;-80
2022/09/30 00:44:52;;;;;;;;;;;;;;;13.65;100.00;99621.48;1516486;84;21461;-81
2022/09/30 00:47:42;;;;;;;29.53;10.63;;;;;;;13.63;100.00;99620.32;1470491;87;20334;-79
2022/09/30 00:50:34;;;;;;;35.07;10.63;;;;;;;13.61;100.00;99617.52;1505495;86;21337;-80
2022/09/30 00:53:24;;;;;;;15.50;9.60;;;;;;;13.57;100.00;99615.75;1505336;84;21362;-80
2022/09/30 00:56:08;;;;;;;28.43;9.20;;;;;;;13.51;100.00;99613.33;1494159;86;21422;-81
2022/09/30 00:58:55;;;;;;;13.40;8.60;;;;;;;13.49;100.00;99612.72;1512755;86;21449;-81
2022/09/30 01:01:23;;;;;;;24.07;8.53;;;;;;;13.49;100.00;99615.86;1508325;86;21378;-80
2022/09/30 01:04:15;;;;;;;23.50;9.67;;;;;;;13.49;100.00;99608.73;1511165;86;21344;-80
2022/09/30 01:06:43;;;;;;;22.63;8.40;;;;;;;13.49;100.00;99604.75;1514923;86;21315;-80
2022/09/30 01:09:10;;;;;;;12.77;8.30;;;;;;;13.48;100.00;99602.26;1510827;84;21440;-81
2022/09/30 01:11:36;;;;;;;14.67;8.33;;;;;;;13.45;100.00;99603.45;1509785;86;21385;-80
2022/09/30 01:14:13;;;;;;;35.43;8.53;;;;;;;13.46;100.00;99600.28;1508652;86;21407;-80
2022/09/30 01:17:20;;;;;;;35.40;9.17;;;;;;;13.39;100.00;99604.20;1508811;84;22315;-81
2022/09/30 01:20:31;;;;;;;30.17;9.73;;;;;;;13.38;100.00;99611.86;1511764;84;22216;-81
2022/09/30 01:23:15;;;;;;;20.03;9.33;;;;;;;13.37;100.00;99613.36;1505423;86;22119;-80
2022/09/30 01:26:25;;;;;;;28.87;8.93;;;;;;;13.35;100.00;99618.88;1511338;86;21522;-80
2022/09/30 01:29:23;;;;;;;22.05;8.23;;;;;;;13.34;100.00;99613.22;1471200;89;21584;-81
2022/09/30 01:31:58;;;;;;;15.03;8.87;;;;;;;13.31;100.00;99618.41;1517623;86;21529;-80
2022/09/30 01:35:03;;;;;;;12.97;8.23;;;;;;;13.33;100.00;99622.22;1514422;86;21341;-80
2022/09/30 01:38:04;;;;;;;24.80;9.00;;;;;;;13.33;100.00;99617.41;1477128;87;21757;-80
2022/09/30 01:41:00;;;;;;;18.93;7.67;;;;;;;13.36;100.00;99628.49;1491919;87;21467;-80
2022/09/30 01:43:38;;;;;;;11.17;8.17;;;;;;;13.37;100.00;99627.47;1490180;87;22094;-80
2022/09/30 01:46:19;;;;;;;14.57;7.97;;;;;;;13.36;100.00;99632.98;1499277;84;22374;-81
2022/09/30 01:48:57;;;;;;;23.63;8.13;;;;;;;13.36;100.00;99626.34;1516401;86;21555;-81
2022/09/30 01:51:43;;;;;;;16.33;7.43;;;;;;;13.35;100.00;99620.21;1507786;84;21388;-80
2022/09/30 01:54:17;;;;;;;30.73;8.83;;;;;;;13.29;100.00;99620.44;1533613;84;21410;-80
2022/09/30 01:56:51;;;;;;;36.97;8.77;;;;;;;13.23;100.00;99623.78;1519906;84;21438;-81
2022/09/30 01:59:35;;;;;;;17.67;8.83;;;;;;;13.21;100.00;99620.50;1503611;86;22251;-79
2022/09/30 02:02:27;;;;;;;14.70;8.10;;;;;;;13.20;100.00;99624.66;1500746;86;21548;-81
2022/09/30 02:04:59;;;;;;;17.90;8.03;;;;;;;13.18;100.00;99621.38;1487042;87;22236;-78
2022/09/30 02:07:34;;;;;;;10.40;7.40;;;;;;;13.15;100.00;99615.08;1514555;86;21596;-77
2022/09/30 02:10:08;;;;;;;11.13;6.83;;;;;;;13.13;100.00;99619.27;1496601;87;21506;-78
2022/09/30 02:12:39;;;;;;;16.93;7.83;;;;;;;13.15;100.00;99616.41;1497041;86;22298;-78
2022/09/30 02:15:08;;;;;;;;;;;;;;;13.17;100.00;99602.45;1500716;87;21470;-78
2022/09/30 02:17:45;;;;;;;8.00;6.47;;;;;;;13.15;100.00;99609.77;1466417;89;20381;-78
2022/09/30 02:20:23;;;;;;;8.63;6.50;;;;;;;13.14;100.00;99614.77;1494295;86;21409;-78
2022/09/30 02:23:18;;;;;;;8.77;6.77;;;;;;;13.10;100.00;99611.16;1487906;87;21634;-78
2022/09/30 02:25:53;;;;;;;8.70;6.10;;;;;;;13.10;100.00;99611.16;1479479;87;22334;-78
2022/09/30 02:28:26;;;;;;;13.27;6.60;;;;;;;13.12;100.00;99610.14;1485654;87;22475;-78
2022/09/30 02:30:57;;;;;;;13.43;6.40;;;;;;;13.11;100.00;99614.63;1480812;87;21315;-78
2022/09/30 02:33:40;;;;;;;12.73;5.90;;;;;;;13.07;100.00;99623.48;1483345;87;21501;-79
2022/09/30 02:36:26;;;;;;;31.50;8.43;;;;;;;13.05;100.00;99626.81;1476479;87;21383;-78
2022/09/30 02:39:06;;;;;;;14.27;7.97;;;;;;;13.01;100.00;99628.20;1495630;86;21390;-78
2022/09/30 02:41:38;;;;;;;21.20;7.87;;;;;;;13.04;100.00;99629.16;1508091;86;23284;-78
2022/09/30 02:44:05;;;;;;;19.57;7.23;;;;;;;13.02;100.00;99627.18;1530309;84;21465;-77
2022/09/30 02:46:53;;;;;;;9.70;6.50;;;;;;;13.05;100.00;99619.35;1534874;84;22227;-78
2022/09/30 02:49:31;;;;;;;7.43;6.47;;;;;;;13.01;100.00;99622.89;1537343;84;21555;-78
2022/09/30 02:52:26;;;;;;;8.80;7.00;;;;;;;12.98;100.00;99633.88;1513791;84;21393;-78
2022/09/30 02:55:36;;;;;;;11.90;6.77;;;;;;;13.00;100.00;99626.53;1488488;87;21370;-78
2022/09/30 02:58:16;;;;;;;9.10;7.07;;;;;;;13.05;100.00;99618.02;1510246;84;21399;-79
2022/09/30 03:00:42;;;;;;;10.43;6.53;;;;;;;13.09;100.00;99612.17;1510973;84;22117;-78
2022/09/30 03:03:13;;;;;;;12.87;6.27;;;;;;;13.06;100.00;99595.28;1547585;84;22421;-78
2022/09/30 03:05:40;;;;;;;10.87;5.67;;;;;;;13.06;100.00;99596.61;1529982;84;21277;-78
2022/09/30 03:08:06;;;;;;;15.87;5.87;;;;;;;13.01;100.00;99605.63;1510087;84;22364;-78
2022/09/30 03:10:32;;;;;;;11.83;5.33;;;;;;;13.02;100.00;99621.05;1532777;84;21393;-78
2022/09/30 03:13:17;;;;;;;8.20;5.77;;;;;;;12.97;100.00;99634.86;1525860;84;21314;-78
2022/09/30 03:16:11;;;;;;;5.73;5.23;;;;;;;13.00;100.00;99645.13;1512723;86;21292;-79
2022/09/30 03:19:07;;;;;;;9.03;5.73;;;;;;;13.03;100.00;99646.12;1513440;86;21378;-79
2022/09/30 03:21:59;;;;;;;7.07;5.90;;;;;;;13.05;100.00;99652.05;1516640;85;21363;-78
2022/09/30 03:24:55;;;;;;;15.03;5.63;;;;;;;13.05;100.00;99645.91;1507375;85;21393;-78
2022/09/30 03:27:33;;;;;;;11.40;5.90;;;;;;;13.04;100.00;99645.09;1521913;84;22168;-79
2022/09/30 03:30:10;;;;;;;13.77;6.67;;;;;;;13.00;100.00;99646.45;1529259;84;21444;-79
2022/09/30 03:33:09;;;;;;;11.80;6.33;;;;;;;12.99;100.00;99652.78;1493627;87;21363;-80
2022/09/30 03:35:50;;;;;;;8.07;5.80;;;;;;;12.98;100.00;99657.78;1495590;86;21356;-80
2022/09/30 03:38:46;;;;;;;8.77;6.10;;;;;;;12.92;100.00;99666.48;1509532;86;21434;-80
2022/09/30 03:41:17;;;;;;;8.50;5.87;;;;;;;12.90;100.00;99668.99;1491826;86;21426;-81
2022/09/30 03:44:01;;;;;;;5.40;4.90;;;;;;;12.89;100.00;99673.48;1507645;86;21551;-80
2022/09/30 03:46:44;;;;;;;6.33;5.20;;;;;;;12.92;100.00;99687.73;1513008;86;21317;-80
2022/09/30 03:49:18;;;;;;;8.53;6.33;;;;;;;12.96;100.00;99690.84;1509866;86;21456;-81
2022/09/30 03:51:45;;;;;;;9.73;5.67;;;;;;;12.98;100.00;99697.63;1517221;84;21488;-80
2022/09/30 03:54:13;;;;;;;10.73;5.77;;;;;;;13.04;100.00;99696.90;1507222;86;21348;-79
2022/09/30 03:56:43;;;;;;;7.33;6.63;;;;;;;13.09;100.00;99696.37;1518433;85;21296;-80
2022/09/30 03:59:14;;;;;;;11.77;5.87;;;;;;;13.13;100.00;99696.81;1507806;86;21400;-80
2022/09/30 04:01:40;;;;;;;7.70;6.80;;;;;;;13.14;100.00;99694.47;1508540;86;21460;-82
2022/09/30 04:04:06;;;;;;;9.37;6.67;;;;;;;13.16;100.00;99699.93;1516836;86;21393;-81
2022/09/30 04:06:32;;;;;;;8.20;6.00;;;;;;;13.16;100.00;99684.50;1513862;86;22225;-81
2022/09/30 04:08:58;;;;;;;7.50;6.07;;;;;;;13.16;100.00;99684.50;1504349;86;21363;-80
2022/09/30 04:11:25;;;;;;;6.23;5.73;;;;;;;13.14;100.00;99683.34;1506575;86;21337;-80
2022/09/30 04:13:51;;;;;;;7.07;6.37;;;;;;;13.13;100.00;99678.22;1518581;84;22135;-79
2022/09/30 04:16:17;;;;;;;7.80;6.07;;;;;;;13.06;100.00;99678.95;1529036;84;21349;-79
2022/09/30 04:18:44;;;;;;;7.03;5.77;;;;;;;13.05;100.00;99690.56;1529157;84;21284;-79
2022/09/30 04:21:13;;;;;;;7.13;6.27;;;;;;;13.03;100.00;99689.09;1500306;84;21359;-79
2022/09/30 04:23:42;;;;;;;9.77;6.07;;;;;;;12.96;100.00;99680.22;1529325;84;21377;-80
2022/09/30 04:26:15;;;;;;;14.57;5.50;;;;;;;12.98;100.00;99687.51;1513798;86;21264;-80
2022/09/30 04:28:42;;;;;;;6.50;5.80;;;;;;;12.93;100.00;99679.25;1509498;84;21485;-80
2022/09/30 04:31:11;;;;;;;6.80;6.17;;;;;;;12.92;100.00;99682.42;1510883;84;21481;-80
2022/09/30 04:33:38;;;;;;;8.27;7.33;;;;;;;12.91;100.00;99679.92;1506443;84;21544;-79
2022/09/30 04:36:06;;;;;;;12.87;7.20;;;;;;;12.85;100.00;99677.49;1501452;85;21359;-84
2022/09/30 04:38:33;;;;;;;8.27;7.00;;;;;;;12.82;100.00;99678.67;1511336;84;21283;-83
2022/09/30 04:41:04;;;;;;;9.77;7.50;;;;;;;12.84;100.00;99685.14;1490512;86;22343;-83
2022/09/30 04:43:31;;;;;;;10.37;6.97;;;;;;;12.85;100.00;99690.77;1437226;89;21603;-83
2022/09/30 04:45:57;;;;;;;8.47;7.40;;;;;;;12.89;100.00;99694.73;1463577;87;21293;-84
2022/09/30 04:48:24;;;;;;;7.93;7.13;;;;;;;12.91;100.00;99695.86;1519980;86;22294;-83
2022/09/30 04:50:50;;;;;;;11.10;6.80;;;;;;;12.92;100.00;99703.66;1507611;84;21425;-83
2022/09/30 04:53:17;;;;;;;8.47;6.93;;;;;;;12.95;100.00;99707.28;1510585;86;22575;-82
2022/09/30 04:55:45;;;;;;;9.63;7.70;;;;;;;12.97;100.00;99706.58;1538433;84;21542;-81
2022/09/30 04:58:11;;;;;;;8.60;7.70;;;;;;;12.99;100.00;99705.91;1506861;84;21345;-83
2022/09/30 05:00:38;;;;;;;11.30;7.23;;;;;;;13.04;100.00;99704.05;1510255;84;21277;-84
2022/09/30 05:03:04;;;;;;;11.30;7.57;;;;;;;13.10;100.00;99705.47;1508511;84;21348;-83
2022/09/30 05:05:32;;;;;;;8.60;7.00;;;;;;;13.13;100.00;99700.80;1510897;84;21301;-83
2022/09/30 05:08:02;;;;;;;9.40;7.87;;;;;;;13.18;100.00;99705.08;1509915;86;22305;-83
2022/09/30 05:10:29;;;;;;;8.33;7.40;;;;;;;13.21;100.00;99700.22;1512246;86;21403;-84
2022/09/30 05:12:56;;;;;;;11.23;7.63;;;;;;;13.24;100.00;99698.52;1480594;86;22245;-83
2022/09/30 05:15:23;;;;;;;8.80;7.17;;;;;;;13.27;100.00;99702.17;1510918;86;21278;-83
2022/09/30 05:17:49;;;;;;;9.27;6.93;;;;;;;13.31;100.00;99697.30;1510507;86;21389;-83
2022/09/30 05:20:16;;;;;;;8.20;6.93;;;;;;;13.31;100.00;99694.14;1512366;86;22271;-86
2022/09/30 05:22:42;;;;;;;10.43;6.97;;;;;;;13.34;100.00;99698.78;1507020;86;21356;-85
2022/09/30 05:25:08;;;;;;;8.93;7.80;;;;;;;13.36;100.00;99700.25;1505186;86;22331;-82
2022/09/30 05:27:35;;;;;;;7.50;6.77;;;;;;;13.39;100.00;99699.06;1510366;86;21297;-86
2022/09/30 05:30:01;;;;;;;8.30;7.00;;;;;;;13.40;100.00;99704.17;1512121;84;21440;-80
2022/09/30 05:32:28;;;;;;;14.30;8.87;;;;;;;13.36;100.00;99697.59;1490194;86;22483;-82
2022/09/30 05:34:54;;;;;;;15.90;9.20;;;;;;;13.33;100.00;99700.62;1493853;87;21522;-83
2022/09/30 05:37:21;;;;;;;9.33;7.80;;;;;;;13.28;100.00;99697.67;1519459;86;21424;-81
2022/09/30 05:39:47;;;;;;;11.70;7.77;;;;;;;13.28;100.00;99702.98;1518381;86;22425;-82
2022/09/30 05:42:13;;;;;;;8.57;7.03;;;;;;;13.31;100.00;99717.23;1512285;86;21434;-82
2022/09/30 05:44:40;;;;;;;7.70;6.27;;;;;;;13.38;100.00;99721.31;1508970;86;22395;-82
2022/09/30 05:47:06;;;;;;;8.27;7.47;;;;;;;13.40;100.00;99714.81;1485695;86;22499;-82
2022/09/30 05:49:33;;;;;;;8.03;7.23;;;;;;;13.45;100.00;99707.11;1483822;86;21352;-82
2022/09/30 05:52:00;;;;;;;10.70;6.90;;;;;;;13.51;100.00;99709.55;1507880;86;21448;-81
2022/09/30 05:54:26;;;;;;;6.53;5.90;;;;;;;13.54;100.00;99708.66;1509938;86;21588;-82
2022/09/30 05:56:52;;;;;;;7.53;6.40;;;;;;;13.58;100.00;99702.97;1511044;86;22431;-82
2022/09/30 05:59:20;;;;;;;9.33;6.70;;;;;;;13.66;100.00;99709.53;1508957;86;22521;-82
2022/09/30 06:01:46;;;;;;;7.20;5.77;;;;;;;13.72;100.00;99710.11;1509711;86;21427;-82
2022/09/30 06:04:12;;;;;;;6.77;6.17;;;;;;;13.76;100.00;99714.07;1511600;86;21404;-82
2022/09/30 06:06:38;;;;;;;8.10;6.13;;;;;;;13.81;100.00;99709.03;1493597;86;22381;-82
2022/09/30 06:09:04;;;;;;;8.37;5.87;;;;;;;13.84;100.00;99705.98;1520287;86;21507;-82
2022/09/30 06:11:30;;;;;;;7.27;5.80;;;;;;;13.91;100.00;99710.87;1510547;86;21315;-82
2022/09/30 06:13:57;;;;;;;6.60;5.93;;;;;;;14.02;100.00;99713.56;1518239;86;21345;-81
2022/09/30 06:16:23;;;;;;;6.00;5.40;;;;;;;14.09;100.00;99717.62;1513899;86;21479;-82
2022/09/30 06:18:50;;;;;;;5.80;5.30;;;;;;;14.11;100.00;99716.93;1520575;86;21589;-82
2022/09/30 06:21:16;;;;;;;8.27;5.53;;;;;;;14.15;100.00;99718.19;1505475;86;21563;-81
2022/09/30 06:23:43;;;;;;;11.47;5.17;;;;;;;14.18;100.00;99717.34;1506672;86;21478;-83
2022/09/30 06:26:12;;;;;;;9.40;7.53;;;;;;;14.20;100.00;99721.13;1513126;86;21457;-82
2022/09/30 06:28:39;;;;;;;10.00;7.83;;;;;;;14.23;100.00;99714.91;1506580;86;21485;-82
2022/09/30 06:31:06;;;;;;;10.20;8.30;;;;;;;14.23;100.00;99705.59;1518083;86;21870;-82
2022/09/30 06:33:33;;;;;;;16.40;9.13;;;;;;;14.23;100.00;99704.77;1514269;86;21375;-81
2022/09/30 06:36:03;;;;;;;11.30;9.03;;;;;;;14.25;100.00;99716.06;1518362;86;21367;-82
2022/09/30 06:38:28;;;;;;;7.73;6.73;;;;;;;14.27;100.00;99715.38;1509248;86;22520;-82
2022/09/30 06:40:55;;;;;;;8.73;5.07;;;;;;;14.29;100.00;99701.87;1509042;86;21389;-81
2022/09/30 06:43:21;;;;;;;5.77;4.93;;;;;;;14.25;100.00;99696.62;1519040;86;21426;-82
2022/09/30 06:45:51;;;;;;;8.00;4.87;;;;;;;14.25;100.00;99698.77;1509922;86;22341;-81
2022/09/30 06:48:18;;;;;;;4.53;4.12;;;;;;;14.29;100.00;99709.84;1519141;86;21566;-82
2022/09/30 06:50:44;;;;;;;8.20;5.10;;;;;;;14.30;100.00;99718.99;1510768;86;21404;-81
2022/09/30 06:53:12;;;;;;;6.33;4.37;;;;;;;14.34;100.00;99731.41;1518230;86;21405;-81
2022/09/30 06:55:39;;;;;;;8.23;4.37;;;;;;;14.32;100.00;99724.92;1506712;86;21330;-81
2022/09/30 06:58:09;;;;;;;7.07;4.67;;;;;;;14.34;100.00;99725.57;1513665;86;21536;-80
2022/09/30 07:00:35;;;;;;;6.37;5.67;;;;;;;14.37;100.00;99721.20;1509192;86;22188;-81
2022/09/30 07:03:01;;;;;;;7.73;5.50;;;;;;;14.40;100.00;99727.47;1522493;86;21331;-81
2022/09/30 07:05:28;;;;;;;5.90;5.30;;;;;;;14.38;100.00;99716.18;1512733;86;21360;-81
2022/09/30 07:07:55;;;;;;;5.80;5.17;;;;;;;14.36;100.00;99715.57;1527371;86;21367;-81
2022/09/30 07:10:21;;;;;;;6.77;5.27;;;;;;;14.32;100.00;99724.92;1499145;86;21411;-81
2022/09/30 07:12:51;;;;;;;11.50;6.03;;;;;;;14.30;100.00;99732.30;1519356;86;21345;-81
2022/09/30 07:15:22;;;;;;;7.87;5.53;;;;;;;14.28;100.00;99732.98;1513909;86;21331;-80
2022/09/30 07:17:53;;;;;;;6.95;5.28;;;;;;;14.26;100.00;99738.99;1512238;86;21367;-80
2022/09/30 07:20:19;;;;;;;17.33;5.63;;;;;;;14.27;100.00;99742.00;1495551;86;21463;-80
2022/09/30 07:22:46;;;;;;;7.37;5.53;;;;;;;14.26;100.00;99760.28;1510679;86;21426;-80
2022/09/30 07:25:13;;;;;;;9.87;4.80;;;;;;;14.28;100.00;99768.09;1513600;86;21360;-79
2022/09/30 07:27:40;;;;;;;8.40;5.20;;;;;;;14.28;100.00;99776.91;1513918;86;22521;-78
2022/09/30 07:30:08;;;;;;;6.50;5.43;;;;;;;14.29;100.00;99768.41;1514648;86;21411;-79
2022/09/30 07:32:34;;;;;;;5.27;4.77;;;;;;;14.28;100.00;99763.59;1512398;86;21374;-79
2022/09/30 07:35:00;;;;;;;7.23;5.23;;;;;;;14.33;100.00;99758.54;1522103;86;21791;-79
2022/09/30 07:37:26;;;;;;;8.00;4.40;;;;;;;14.41;100.00;99759.76;1514722;86;21403;-80
2022/09/30 07:39:52;;;;;;;4.80;4.20;;;;;;;14.53;100.00;99751.27;1513880;86;21346;-80
2022/09/30 07:42:25;;;;;;;11.37;4.70;;;;;;;14.66;100.00;99774.05;1509479;86;21360;-80
2022/09/30 07:44:50;;;;;;;11.40;5.60;;;;;;;14.76;100.00;99771.06;1512151;86;21432;-81
2022/09/30 07:47:17;;;;;;;13.50;6.47;;;;;;;14.83;100.00;99770.12;1511592;86;21522;-81
2022/09/30 07:49:44;;;;;;;11.47;6.23;;;;;;;14.89;100.00;99769.34;1513579;86;22411;-77
2022/09/30 07:52:12;;;;;;;7.73;5.13;;;;;;;14.95;100.00;99784.26;1515322;86;21368;-78
2022/09/30 07:54:39;;;;;;;7.97;4.53;;;;;;;15.00;100.00;99792.51;1514465;86;21309;-78
2022/09/30 07:57:11;;;;;;;7.17;4.47;;;;;;;15.04;100.00;99790.58;1512448;86;21301;-78
2022/09/30 07:59:40;;;;;;;7.17;3.83;;;;;;;15.09;100.00;99792.68;1505156;86;21456;-77
2022/09/30 08:02:09;;;;;;;6.40;4.47;;;;;;;15.17;100.00;99795.22;1521392;86;22370;-78
2022/09/30 08:04:35;;;;;;;10.07;5.53;;;;;;;15.26;100.00;99806.56;1509483;86;21383;-76
2022/09/30 08:07:02;;;;;;;7.90;4.60;;;;;;;15.32;100.00;99807.12;1506292;86;21381;-77
2022/09/30 08:09:29;;;;;;;8.27;4.77;;;;;;;15.41;100.00;99807.28;1526312;84;21447;-75
2022/09/30 08:11:56;;;;;;;7.63;4.13;;;;;;;15.53;100.00;99802.23;1555165;84;22192;-78
2022/09/30 08:14:26;;;;;;;8.67;4.27;;;;;;;15.64;100.00;99801.69;1441515;84;21381;-78
2022/09/30 08:16:54;;;;;;;4.83;4.00;;;;;;;15.74;100.00;99808.88;1605947;84;21366;-79
2022/09/30 08:19:24;;;;;;;4.37;3.60;;;;;;;15.86;100.00;99809.15;1611551;84;21197;-78
2022/09/30 08:21:52;;;;;;;5.05;3.20;;;;;;;16.11;100.00;99820.16;1437936;86;21359;-79
2022/09/30 08:24:27;;;;;;;5.80;3.10;;;;;;;16.49;100.00;99817.02;1609274;84;21189;-79
2022/09/30 08:26:54;;;;;;;8.90;3.97;;;;;;;16.71;100.00;99821.68;1438226;84;21255;-78
2022/09/30 08:29:20;;;;;;;6.33;3.57;;;;;;;16.86;100.00;99820.19;1443346;84;21262;-80
2022/09/30 08:31:47;;;;;;;9.37;3.50;;;;;;;17.02;100.00;99810.45;1446275;84;22092;-80
2022/09/30 08:34:13;;;;;;;12.57;3.03;;;;;;;17.11;99.25;99808.41;1444816;84;21240;-80
2022/09/30 08:36:40;;;;;;;7.20;4.00;;;;;;;17.12;99.03;99805.53;1510045;84;21461;-80
2022/09/30 08:39:06;;;;;;;4.12;3.15;;;;;;;17.16;99.42;99813.97;1523281;84;22387;-80
2022/09/30 08:42:03;;;;;;;14.95;2.52;;;;;;;17.23;99.29;99812.62;1524714;84;21342;-79
2022/09/30 08:44:43;;;;;;;10.58;2.70;;;;;;;17.26;97.66;99807.70;1516411;84;21675;-80
2022/09/30 08:47:32;;;;;;;5.20;2.67;;;;;;;17.20;97.66;99804.48;1515631;84;21366;-81
2022/09/30 08:50:42;;;;;;;8.73;2.40;;;;;;;17.09;96.73;99805.95;1519282;84;21461;-80
2022/09/30 08:53:13;;;;;;;4.20;2.73;;;;;;;17.01;96.90;99806.14;1521698;84;21603;-80
2022/09/30 08:55:45;;;;;;;4.17;2.60;;;;;;;16.88;96.80;99799.44;1511689;84;21745;-82
2022/09/30 08:58:22;;;;;;;7.73;3.43;;;;;;;16.85;97.30;99798.52;1526989;84;21328;-80
2022/09/30 09:00:52;;;;;;;9.80;2.70;;;;;;;16.87;97.79;99807.16;1488027;84;22022;-81
2022/09/30 09:03:29;;;;;;;4.72;2.65;;;;;;;16.92;98.27;99790.00;1531066;84;22110;-81
2022/09/30 09:06:36;;;;;;;4.07;2.67;;;;;;;16.99;98.54;99781.98;1617503;84;22062;-80
2022/09/30 09:09:22;;;;;;;5.90;2.83;;;;;;;17.09;98.27;99771.69;1507166;84;21285;-80
2022/09/30 09:12:21;;;;;;;13.57;3.33;;;;;;;17.16;97.97;99762.34;1453038;86;21418;-81
2022/09/30 09:15:23;;;;;;;8.33;3.77;;;;;;;17.19;97.47;99758.73;1610369;84;21321;-79
2022/09/30 09:18:41;;;;;;;5.60;3.00;;;;;;;17.24;98.00;99766.15;1551918;87;22152;-80
2022/09/30 09:21:21;;;;;;;17.60;6.47;;;;;;;17.23;97.29;99783.20;1521453;84;21366;-80
2022/09/30 09:23:51;;;;;;;5.30;3.65;;;;;;;17.19;97.02;99796.69;1527565;84;21505;-79
2022/09/30 09:26:18;;;;;;;4.60;2.10;;;;;;;17.11;97.33;99807.06;1523579;84;21439;-80
2022/09/30 09:29:24;;;;;;;4.93;2.17;;;;;;;17.11;97.33;99807.06;1531754;84;21908;-79
2022/09/30 09:31:50;;;;;;;4.43;2.33;;;;;;;17.08;96.90;99810.97;1518877;84;21358;-79
2022/09/30 09:34:16;;;;;;;6.50;2.60;;;;;;;17.09;97.14;99821.14;1518533;84;21366;-78
2022/09/30 09:36:48;;;;;;;6.60;2.60;;;;;;;17.06;97.43;99827.75;1517325;84;21417;-79
2022/09/30 09:39:28;;;;;;;3.80;2.07;;;;;;;17.04;98.16;99837.00;1488981;86;22492;-78
2022/09/30 09:42:22;;;;;;;3.95;2.42;;;;;;;17.02;98.62;99840.37;1486622;86;21349;-79
2022/09/30 09:44:57;;;;;;;6.60;3.33;;;;;;;17.05;99.26;99841.30;1520286;84;21365;-79
2022/09/30 09:47:23;;;;;;;4.23;2.03;;;;;;;17.16;99.33;99853.25;1520870;84;21542;-79
2022/09/30 09:49:59;;;;;;;5.83;3.10;;;;;;;17.31;99.35;99848.52;1517921;84;21373;-79
2022/09/30 09:52:39;;;;;;;5.58;2.33;;;;;;;17.42;98.37;99857.27;1525899;84;21380;-80
2022/09/30 09:55:09;;;;;;;4.55;2.50;;;;;;;17.56;97.98;99856.23;1614565;84;21351;-80
2022/09/30 09:57:34;;;;;;;3.27;2.10;;;;;;;17.78;98.04;99862.70;1588641;84;22262;-79
2022/09/30 10:03:14;;;;;;;7.97;1.87;;;;;;;18.15;95.96;99863.86;1525911;84;21469;-79
2022/09/30 10:05:39;;;;;;;3.60;1.70;;;;;;;18.33;93.51;99865.89;1513142;84;21432;-80
2022/09/30 10:08:21;;;;;;;6.12;1.70;;;;;;;18.54;92.45;99864.77;1525094;84;21490;-79
2022/09/30 10:10:58;;;;;;;3.10;1.80;;;;;;;18.62;89.33;99859.69;1616041;84;21321;-80
2022/09/30 10:13:28;;;;;;;12.53;2.72;;;;;;;18.73;89.12;99861.69;1606630;84;21337;-80
2022/09/30 10:15:56;;;;;;;4.40;1.92;;;;;;;18.69;87.88;99861.80;1441835;86;21359;-79
2022/09/30 10:18:33;;;;;;;2.25;1.65;;;;;;;18.65;87.00;99856.05;1486078;84;22539;-79
2022/09/30 10:21:04;;;;;;;2.20;1.70;;;;;;;18.74;85.64;99856.66;1519600;84;22150;-81
2022/09/30 10:23:39;;;;;;;6.17;2.20;;;;;;;19.03;85.28;99856.58;1526408;84;21624;-80
2022/09/30 10:26:21;;;;;;;3.02;1.65;;;;;;;19.38;85.26;99852.89;1524135;84;21468;-80
2022/09/30 10:28:55;;;;;;;4.05;1.47;;;;;;;19.65;83.24;99850.03;1521774;84;22052;-81
2022/09/30 10:31:32;;;;;;;5.33;1.50;;;;;;;19.72;80.51;99857.48;1505316;84;22267;-80
2022/09/30 10:34:25;;;;;;;3.20;1.42;;;;;;;19.69;78.94;99852.56;1450683;84;21446;-81
2022/09/30 10:36:52;;;;;;;2.37;1.20;;;;;;;19.66;79.71;99854.34;1507410;88;21413;-80
2022/09/30 10:39:26;;;;;;;19.00;11.25;;;;;;;19.57;78.95;99852.96;1374404;89;21553;-81
2022/09/30 10:42:08;;;;;;;3.75;2.08;;;;;;;19.42;77.83;99861.84;1499334;89;21514;-80
2022/09/30 10:45:00;;;;;;;5.45;1.70;;;;;;;19.27;77.68;99850.92;1437299;89;21398;-80
2022/09/30 10:47:27;;;;;;;2.02;1.52;;;;;;;19.30;78.73;99853.69;1448768;88;21508;-83
2022/09/30 10:50:05;;;;;;;2.83;1.65;;;;;;;19.39;77.98;99855.90;1366189;89;21518;-83
2022/09/30 10:52:43;;;;;;;4.78;1.82;;;;;;;19.38;78.12;99860.94;1510951;88;22220;-82
2022/09/30 10:55:28;;;;;;;6.15;2.12;;;;;;;19.35;78.02;99855.20;1514008;88;22152;-81
2022/09/30 10:57:56;;;;;;;6.05;1.82;;;;;;;19.34;77.82;99857.07;1520222;88;21350;-81
2022/09/30 11:00:26;;;;;;;2.65;1.72;;;;;;;19.43;78.04;99866.19;1516653;88;22292;-80
2022/09/30 11:03:06;;;;;;;3.37;1.60;;;;;;;19.59;76.37;99853.05;1376268;89;22255;-82
2022/09/30 11:05:46;;;;;;;3.62;1.70;;;;;;;19.87;76.53;99856.31;1507007;90;22161;-81
2022/09/30 11:08:45;;;;;;;2.58;1.95;;;;;;;19.98;74.93;99849.68;1519306;85;21339;-81
2022/09/30 11:11:22;;;;;;;5.05;1.60;;;;;;;20.01;74.47;99861.84;1601285;84;22358;-81
2022/09/30 11:14:01;;;;;;;3.45;2.00;;;;;;;19.95;73.36;99853.34;1434781;87;21240;-82
2022/09/30 11:16:47;;;;;;;3.08;1.50;;;;;;;19.87;74.34;99859.81;1612559;84;21407;-82
2022/09/30 11:19:31;;;;;;;4.83;1.67;;;;;;;19.85;74.85;99863.23;1430452;86;21531;-82
2022/09/30 11:22:17;;;;;;;2.42;1.70;;;;;;;19.95;75.39;99858.72;1623265;84;21445;-83
2022/09/30 11:24:47;;;;;;;6.12;1.32;;;;;;;20.20;75.14;99863.50;1579323;84;21366;-81
2022/09/30 11:27:54;;;;;;;5.35;1.40;;;;;;;20.46;72.35;99869.60;1516396;84;22348;-83
2022/09/30 11:30:34;;;;;;;2.98;1.40;;;;;;;20.43;69.78;99867.37;1522509;84;21315;-84
2022/09/30 11:33:18;;;;;;;8.15;1.75;;;;;;;20.33;68.33;99864.37;1519386;84;21593;-82
2022/09/30 11:36:11;;;;;;;2.33;1.60;;;;;;;20.23;69.99;99854.98;1518301;84;21476;-83
2022/09/30 11:39:05;;;;;;;2.87;1.55;;;;;;;20.15;70.21;99859.31;1520226;84;22349;-82
2022/09/30 11:41:47;;;;;;;1.50;1.40;;;;;;;20.03;68.81;99866.48;1457701;88;21658;-83
2022/09/30 11:44:22;;;;;;;2.50;1.42;;;;;;;19.91;69.08;99846.75;1509323;84;21439;-82
2022/09/30 11:47:11;;;;;;;5.35;1.95;;;;;;;19.91;69.08;99846.75;1525061;84;21850;-82
2022/09/30 11:50:06;;;;;;;3.27;1.45;;;;;;;19.90;70.14;99858.55;1465819;84;22673;-84
2022/09/30 11:52:40;;;;;;;4.10;1.80;;;;;;;19.78;69.80;99864.66;1515976;86;21336;-83
2022/09/30 11:55:21;;;;;;;3.08;1.80;;;;;;;19.71;70.79;99875.14;1517346;84;21483;-82
2022/09/30 11:58:07;;;;;;;5.55;1.60;;;;;;;19.54;70.59;99880.24;1458189;84;21358;-82
2022/09/30 12:00:38;;;;;;;2.05;1.60;;;;;;;19.43;72.54;99891.16;1546544;84;21278;-81